createdAt,value
2019-02-21T00:01:35.817Z,11.00
2019-02-21T00:04:03.287Z,10.82
2019-02-21T00:06:30.747Z,11.52
2019-02-21T00:08:58.214Z,10.43
2019-02-21T00:11:25.681Z,11.05
2019-02-21T00:13:53.153Z,10.50
2019-02-21T00:16:20.622Z,10.52
2019-02-21T00:18:49.230Z,11.00
2019-02-21T00:21:16.743Z,11.73
2019-02-21T00:23:44.235Z,10.80
2019-02-21T00:26:11.699Z,10.43
2019-02-21T00:28:39.137Z,9.67
2019-02-21T00:31:06.607Z,10.60
2019-02-21T00:33:34.081Z,10.47
2019-02-21T00:36:01.547Z,10.60
2019-02-21T00:38:28.994Z,9.60
2019-02-21T00:40:56.470Z,10.48
2019-02-21T00:43:23.933Z,10.57
2019-02-21T00:45:51.378Z,9.97
2019-02-21T00:48:18.856Z,9.80
2019-02-21T00:50:46.893Z,9.95
2019-02-21T00:53:14.385Z,10.07
2019-02-21T00:55:41.833Z,10.25
2019-02-21T00:58:09.294Z,10.23
2019-02-21T01:00:46.136Z,9.63
2019-02-21T01:03:04.207Z,11.03
2019-02-21T01:05:31.664Z,10.32
2019-02-21T01:07:59.165Z,10.15
2019-02-21T01:10:26.607Z,9.60
2019-02-21T01:12:54.069Z,9.40
2019-02-21T01:15:21.557Z,10.27
2019-02-21T01:17:49.005Z,9.93
2019-02-21T01:20:17.452Z,10.27
2019-02-21T01:22:44.922Z,10.70
2019-02-21T01:25:12.419Z,10.43
2019-02-21T01:27:39.891Z,10.80
2019-02-21T01:30:07.344Z,9.83
2019-02-21T01:32:34.823Z,10.20
2019-02-21T01:35:02.254Z,9.18
2019-02-21T01:37:29.739Z,10.17
2019-02-21T01:39:57.217Z,10.70
2019-02-21T01:42:26.004Z,11.70
2019-02-21T01:44:53.577Z,10.63
2019-02-21T01:47:21.045Z,11.00
2019-02-21T01:49:48.517Z,10.80
2019-02-21T01:52:15.987Z,11.30
2019-02-21T01:54:43.474Z,11.40
2019-02-21T01:57:10.953Z,11.47
2019-02-21T01:59:38.429Z,11.33
2019-02-21T02:02:05.867Z,12.20
2019-02-21T02:04:33.327Z,11.40
2019-02-21T02:07:00.792Z,11.27
2019-02-21T02:09:28.242Z,11.73
2019-02-21T02:11:55.700Z,11.83
2019-02-21T02:14:23.151Z,11.65
2019-02-21T02:16:50.617Z,12.03
2019-02-21T02:19:18.496Z,11.90
2019-02-21T02:21:45.985Z,12.10
2019-02-21T02:24:14.842Z,12.00
2019-02-21T02:26:41.832Z,12.10
2019-02-21T02:29:09.385Z,11.97
2019-02-21T02:31:36.833Z,11.27
2019-02-21T02:34:04.299Z,11.60
2019-02-21T02:36:31.758Z,12.15
2019-02-21T02:38:59.227Z,11.80
2019-02-21T02:41:26.671Z,12.47
2019-02-21T02:43:54.097Z,12.40
2019-02-21T02:46:21.539Z,11.93
2019-02-21T02:48:49.069Z,13.80
2019-02-21T02:51:16.559Z,11.73
2019-02-21T02:53:44.020Z,12.97
2019-02-21T02:56:11.489Z,11.80
2019-02-21T02:58:38.984Z,11.73
2019-02-21T03:01:07.503Z,11.27
2019-02-21T03:03:35.125Z,11.80
2019-02-21T03:06:02.641Z,11.20
2019-02-21T03:08:30.082Z,10.83
2019-02-21T03:10:57.519Z,12.45
2019-02-21T03:13:24.979Z,11.17
2019-02-21T03:15:52.409Z,11.03
2019-02-21T03:18:19.853Z,11.00
2019-02-21T03:20:47.309Z,10.43
2019-02-21T03:23:14.795Z,10.57
2019-02-21T03:25:42.259Z,11.90
2019-02-21T03:28:09.725Z,10.37
2019-02-21T03:30:37.173Z,11.07
2019-02-21T03:33:04.651Z,10.50
2019-02-21T03:35:33.677Z,10.90
2019-02-21T03:38:01.122Z,11.40
2019-02-21T03:40:28.588Z,11.38
2019-02-21T03:42:56.127Z,10.83
2019-02-21T03:45:23.551Z,10.87
2019-02-21T03:47:51.009Z,10.63
2019-02-21T03:50:18.497Z,11.47
2019-02-21T03:52:45.984Z,11.00
2019-02-21T03:55:13.443Z,10.63
2019-02-21T03:57:40.898Z,10.60
2019-02-21T04:00:08.381Z,10.87
2019-02-21T04:02:35.849Z,10.50
2019-02-21T04:05:03.375Z,11.17
2019-02-21T04:07:30.815Z,11.07
2019-02-21T04:09:58.304Z,10.80
2019-02-21T04:12:25.751Z,10.70
2019-02-21T04:14:53.214Z,11.97
2019-02-21T04:17:20.993Z,11.30
2019-02-21T04:19:48.620Z,11.57
2019-02-21T04:22:16.123Z,11.47
2019-02-21T04:24:43.575Z,11.07
2019-02-21T04:27:11.032Z,11.10
2019-02-21T04:29:38.530Z,10.07
2019-02-21T04:32:16.659Z,11.70
2019-02-21T04:34:33.470Z,11.60
2019-02-21T04:37:00.946Z,13.23
2019-02-21T04:39:28.407Z,11.85
2019-02-21T04:41:55.912Z,11.73
2019-02-21T04:44:23.379Z,12.40
2019-02-21T04:46:51.633Z,13.00
2019-02-21T04:49:19.059Z,11.77
2019-02-21T04:51:46.547Z,12.20
2019-02-21T04:54:13.978Z,12.07
2019-02-21T04:56:41.498Z,12.53
2019-02-21T04:59:08.968Z,12.83
2019-02-21T05:01:36.443Z,13.88
2019-02-21T05:04:04.931Z,13.43
2019-02-21T05:06:31.372Z,13.10
2019-02-21T05:08:58.861Z,12.57
2019-02-21T05:11:26.335Z,12.67
2019-02-21T05:13:54.077Z,13.60
2019-02-21T05:16:22.324Z,13.77
2019-02-21T05:18:49.809Z,13.13
2019-02-21T05:21:17.269Z,12.87
2019-02-21T05:23:44.738Z,15.37
2019-02-21T05:26:12.186Z,14.50
2019-02-21T05:28:41.280Z,14.82
2019-02-21T05:31:22.922Z,14.40
2019-02-21T05:33:50.878Z,15.90
2019-02-21T05:36:21.325Z,14.40
2019-02-21T05:39:07.511Z,15.00
2019-02-21T05:41:35.755Z,15.23
2019-02-21T05:44:08.920Z,14.57
2019-02-21T05:46:37.899Z,14.90
2019-02-21T05:49:11.484Z,14.68
2019-02-21T05:51:38.075Z,14.67
2019-02-21T05:54:07.072Z,14.67
2019-02-21T05:56:35.386Z,16.27
2019-02-21T05:59:05.652Z,16.40
2019-02-21T06:01:33.878Z,15.87
2019-02-21T06:04:19.399Z,17.80
2019-02-21T06:06:45.470Z,14.93
2019-02-21T06:09:12.930Z,15.20
2019-02-21T06:11:42.222Z,14.90
2019-02-21T06:14:11.416Z,14.53
2019-02-21T06:16:40.728Z,15.32
2019-02-21T06:19:09.124Z,16.30
2019-02-21T06:21:38.137Z,16.13
2019-02-21T06:24:11.258Z,15.75
2019-02-21T06:26:39.626Z,15.50
2019-02-21T06:29:06.685Z,17.92
2019-02-21T06:31:34.195Z,17.33
2019-02-21T06:34:01.781Z,16.80
2019-02-21T06:36:29.264Z,16.67
2019-02-21T06:38:56.719Z,17.93
2019-02-21T06:41:24.213Z,18.90
2019-02-21T06:43:52.692Z,17.23
2019-02-21T06:46:19.271Z,18.10
2019-02-21T06:48:46.725Z,17.77
2019-02-21T06:51:14.252Z,18.87
2019-02-21T06:53:41.638Z,19.60
2019-02-21T06:56:09.096Z,19.67
2019-02-21T06:58:36.540Z,19.17
2019-02-21T07:01:03.970Z,18.13
2019-02-21T07:03:31.461Z,19.30
2019-02-21T07:05:58.915Z,20.53
2019-02-21T07:08:26.464Z,17.30
2019-02-21T07:11:05.457Z,19.98
2019-02-21T07:13:26.466Z,19.17
2019-02-21T07:15:49.495Z,18.45
2019-02-21T07:18:17.037Z,20.20
2019-02-21T07:20:44.538Z,18.87
2019-02-21T07:23:12.016Z,20.70
2019-02-21T07:25:47.627Z,20.23
2019-02-21T07:28:16.092Z,19.53
2019-02-21T07:30:43.086Z,20.60
2019-02-21T07:33:10.087Z,19.03
2019-02-21T07:35:37.557Z,20.05
2019-02-21T07:38:05.021Z,20.17
2019-02-21T07:40:32.486Z,20.17
2019-02-21T07:42:59.914Z,20.42
2019-02-21T07:45:27.402Z,22.17
2019-02-21T07:47:55.349Z,21.58
2019-02-21T07:50:23.271Z,21.07
2019-02-21T07:53:01.538Z,20.77
2019-02-21T07:55:17.853Z,24.47
2019-02-21T07:57:45.326Z,22.85
2019-02-21T08:00:12.800Z,22.60
2019-02-21T08:02:40.271Z,20.23
2019-02-21T08:05:07.713Z,22.07
2019-02-21T08:07:35.162Z,22.50
2019-02-21T08:10:02.651Z,21.70
2019-02-21T08:12:30.111Z,21.03
2019-02-21T08:14:57.578Z,21.23
2019-02-21T08:17:27.826Z,22.40
2019-02-21T08:19:53.357Z,21.87
2019-02-21T08:22:20.890Z,22.30
2019-02-21T08:24:48.376Z,20.90
2019-02-21T08:27:15.812Z,21.73
2019-02-21T08:29:43.263Z,19.60
2019-02-21T08:32:10.699Z,18.70
2019-02-21T08:34:39.138Z,21.33
2019-02-21T08:37:08.742Z,21.27
2019-02-21T08:39:34.065Z,20.43
2019-02-21T08:42:01.524Z,21.77
2019-02-21T08:44:29.142Z,21.07
2019-02-21T08:46:56.566Z,19.40
2019-02-21T08:49:23.995Z,20.43
2019-02-21T08:51:51.487Z,20.57
2019-02-21T08:54:18.941Z,20.27
2019-02-21T08:56:46.407Z,21.47
2019-02-21T08:59:13.889Z,20.40
2019-02-21T09:01:41.348Z,20.73
2019-02-21T09:04:13.553Z,19.83
2019-02-21T09:06:36.270Z,21.93
2019-02-21T09:09:03.746Z,20.00
2019-02-21T09:11:31.187Z,21.90
2019-02-21T09:13:58.647Z,24.70
2019-02-21T09:16:27.027Z,21.42
2019-02-21T09:18:54.507Z,23.70
2019-02-21T09:21:21.977Z,23.03
2019-02-21T09:23:49.945Z,23.00
2019-02-21T09:26:17.396Z,22.80
2019-02-21T09:28:44.866Z,20.67
2019-02-21T09:31:12.320Z,24.23
2019-02-21T09:33:39.786Z,23.37
2019-02-21T09:36:07.249Z,21.85
2019-02-21T09:38:34.925Z,23.98
2019-02-21T09:41:02.236Z,21.80
2019-02-21T09:43:29.691Z,22.43
2019-02-21T09:45:59.139Z,22.83
2019-02-21T09:48:27.498Z,22.13
2019-02-21T09:50:54.978Z,21.30
2019-02-21T09:53:22.488Z,22.33
2019-02-21T09:55:50.521Z,22.53
2019-02-21T09:58:17.420Z,23.43
2019-02-21T10:00:44.870Z,23.93
2019-02-21T10:03:12.327Z,23.17
2019-02-21T10:05:39.811Z,25.10
2019-02-21T10:08:09.137Z,23.02
2019-02-21T10:10:36.733Z,23.47
2019-02-21T10:13:04.367Z,26.53
2019-02-21T10:15:31.850Z,23.27
2019-02-21T10:17:59.309Z,23.13
2019-02-21T10:20:28.089Z,21.93
2019-02-21T10:22:55.538Z,22.17
2019-02-21T10:25:23.394Z,22.83
2019-02-21T10:27:50.515Z,23.73
2019-02-21T10:30:18.006Z,23.87
2019-02-21T10:32:45.493Z,24.53
2019-02-21T10:35:12.943Z,24.10
2019-02-21T10:37:40.425Z,22.10
2019-02-21T10:40:07.878Z,23.40
2019-02-21T10:42:35.343Z,23.10
2019-02-21T10:45:03.511Z,23.37
2019-02-21T10:47:30.266Z,24.33
2019-02-21T10:49:58.770Z,24.93
2019-02-21T10:52:26.235Z,21.20
2019-02-21T10:54:53.706Z,25.00
2019-02-21T10:57:21.135Z,23.83
2019-02-21T10:59:48.596Z,24.47
2019-02-21T11:02:16.063Z,21.52
2019-02-21T11:04:54.147Z,25.00
2019-02-21T11:07:10.988Z,24.17
2019-02-21T11:09:38.439Z,24.13
2019-02-21T11:12:05.910Z,21.93
2019-02-21T11:14:33.396Z,23.50
2019-02-21T11:17:00.895Z,23.13
2019-02-21T11:19:29.241Z,23.02
2019-02-21T11:21:56.710Z,22.10
2019-02-21T11:24:24.188Z,20.93
2019-02-21T11:26:51.632Z,21.20
2019-02-21T11:29:19.098Z,20.70
2019-02-21T11:31:46.573Z,21.20
2019-02-21T11:34:14.018Z,20.97
2019-02-21T11:36:41.481Z,22.05
2019-02-21T11:39:08.951Z,21.37
2019-02-21T11:41:37.373Z,20.60
2019-02-21T11:44:04.904Z,18.57
2019-02-21T11:46:32.335Z,18.83
2019-02-21T11:48:59.791Z,18.50
2019-02-21T11:51:27.275Z,18.27
2019-02-21T11:53:54.805Z,18.43
2019-02-21T11:56:22.310Z,17.20
2019-02-21T11:58:49.790Z,16.77
2019-02-21T12:01:17.236Z,15.93
2019-02-21T12:03:44.695Z,18.77
2019-02-21T12:06:12.151Z,18.93
2019-02-21T12:08:39.602Z,16.20
2019-02-21T12:11:07.075Z,17.20
2019-02-21T12:13:34.536Z,16.73
2019-02-21T12:16:02.009Z,16.80
2019-02-21T12:18:30.244Z,15.93
2019-02-21T12:20:57.751Z,17.83
2019-02-21T12:23:25.249Z,18.73
2019-02-21T12:25:52.754Z,17.00
2019-02-21T12:28:20.233Z,17.50
2019-02-21T12:30:48.219Z,17.00
2019-02-21T12:33:15.858Z,17.87
2019-02-21T12:35:43.323Z,16.20
2019-02-21T12:38:10.776Z,15.73
2019-02-21T12:40:38.336Z,16.67
2019-02-21T12:43:05.713Z,15.90
2019-02-21T12:45:33.184Z,16.33
2019-02-21T12:48:00.817Z,14.85
2019-02-21T12:50:28.337Z,15.63
2019-02-21T12:52:55.789Z,16.57
2019-02-21T12:55:29.250Z,14.90
2019-02-21T12:57:50.710Z,13.53
2019-02-21T13:00:19.035Z,14.03
2019-02-21T13:02:46.503Z,11.93
2019-02-21T13:05:13.987Z,12.77
2019-02-21T13:07:41.475Z,11.83
2019-02-21T13:10:11.733Z,12.23
2019-02-21T13:12:39.243Z,11.73
2019-02-21T13:15:06.705Z,14.13
2019-02-21T13:17:34.211Z,12.20
2019-02-21T13:20:01.676Z,13.97
2019-02-21T13:22:29.135Z,11.73
2019-02-21T13:24:56.577Z,12.67
2019-02-21T13:27:24.039Z,10.80
2019-02-21T13:29:54.475Z,11.77
2019-02-21T13:32:18.964Z,12.37
2019-02-21T13:34:46.427Z,11.93
2019-02-21T13:37:14.213Z,11.27
2019-02-21T13:39:42.329Z,11.43
2019-02-21T13:42:09.808Z,11.83
2019-02-21T13:44:37.278Z,11.10
2019-02-21T13:47:04.735Z,11.97
2019-02-21T13:49:32.212Z,12.07
2019-02-21T13:51:59.651Z,10.33
2019-02-21T13:54:27.131Z,10.67
2019-02-21T13:56:54.585Z,10.70
2019-02-21T13:59:22.043Z,10.60
2019-02-21T14:01:49.507Z,10.20
2019-02-21T14:04:16.943Z,10.73
2019-02-21T14:06:44.405Z,10.37
2019-02-21T14:09:11.921Z,12.47
2019-02-21T14:11:39.416Z,11.55
2019-02-21T14:14:06.872Z,11.82
2019-02-21T14:16:43.830Z,10.33
2019-02-21T14:19:02.607Z,12.02
2019-02-21T14:21:30.096Z,11.20
2019-02-21T14:23:57.541Z,16.05
2019-02-21T14:26:25.036Z,14.20
2019-02-21T14:28:52.485Z,13.00
2019-02-21T14:31:19.938Z,11.20
2019-02-21T14:33:47.417Z,12.27
2019-02-21T14:36:16.785Z,11.67
2019-02-21T14:38:42.330Z,8.13
2019-02-21T14:41:09.803Z,7.93
2019-02-21T14:43:37.290Z,7.97
2019-02-21T14:46:04.751Z,7.77
2019-02-21T14:48:33.128Z,7.90
2019-02-21T14:51:00.597Z,8.13
2019-02-21T14:53:28.041Z,9.05
2019-02-21T14:55:55.573Z,9.17
2019-02-21T14:58:23.019Z,9.10
2019-02-21T15:00:50.487Z,8.37
2019-02-21T15:03:21.908Z,9.67
2019-02-21T15:05:45.440Z,9.03
2019-02-21T15:08:12.914Z,8.90
2019-02-21T15:10:40.376Z,9.20
2019-02-21T15:13:07.862Z,9.60
2019-02-21T15:15:35.298Z,9.43
2019-02-21T15:18:07.373Z,9.30
2019-02-21T15:20:36.897Z,9.70
2019-02-21T15:22:58.773Z,9.30
2019-02-21T15:25:26.256Z,10.60
2019-02-21T15:27:53.714Z,10.00
2019-02-21T15:30:22.059Z,12.67
2019-02-21T15:32:49.529Z,12.07
2019-02-21T15:35:19.263Z,11.90
2019-02-21T15:37:45.130Z,10.90
2019-02-21T15:40:12.003Z,11.83
2019-02-21T15:42:39.489Z,11.73
2019-02-21T15:45:09.710Z,12.57
2019-02-21T15:47:35.819Z,12.23
2019-02-21T15:50:04.395Z,14.90
2019-02-21T15:52:31.837Z,12.97
2019-02-21T15:54:59.295Z,12.70
2019-02-21T15:57:26.762Z,14.80
2019-02-21T15:59:54.238Z,14.03
2019-02-21T16:02:21.746Z,12.70
2019-02-21T16:04:49.847Z,15.43
2019-02-21T16:07:17.413Z,13.13
2019-02-21T16:09:44.860Z,13.13
2019-02-21T16:12:12.556Z,13.13
2019-02-21T16:14:39.817Z,13.50
2019-02-21T16:17:07.313Z,12.87
2019-02-21T16:19:35.717Z,14.20
2019-02-21T16:22:03.181Z,13.23
2019-02-21T16:24:30.687Z,14.23
2019-02-21T16:26:59.937Z,13.57
2019-02-21T16:29:28.320Z,13.40
2019-02-21T16:31:55.787Z,13.53
2019-02-21T16:34:23.251Z,13.95
2019-02-21T16:37:01.861Z,13.87
2019-02-21T16:39:18.242Z,15.40
2019-02-21T16:41:45.711Z,15.45
2019-02-21T16:44:13.194Z,15.60
2019-02-21T16:46:40.644Z,14.17
2019-02-21T16:49:08.663Z,15.07
2019-02-21T16:51:36.205Z,15.03
2019-02-21T16:54:03.672Z,15.50
2019-02-21T16:56:31.138Z,14.60
2019-02-21T16:58:58.644Z,14.87
2019-02-21T17:01:26.075Z,16.67
2019-02-21T17:03:53.562Z,15.60
2019-02-21T17:06:21.037Z,15.87
2019-02-21T17:08:48.502Z,16.67
2019-02-21T17:11:18.110Z,16.53
2019-02-21T17:13:45.779Z,15.47
2019-02-21T17:16:13.223Z,16.50
2019-02-21T17:18:40.701Z,17.52
2019-02-21T17:21:08.153Z,16.77
2019-02-21T17:23:36.123Z,16.27
2019-02-21T17:26:03.587Z,17.40
2019-02-21T17:28:31.067Z,15.80
2019-02-21T17:30:58.501Z,17.53
2019-02-21T17:33:25.988Z,15.60
2019-02-21T17:35:53.440Z,16.50
2019-02-21T17:38:20.901Z,18.07
2019-02-21T17:40:48.379Z,25.85
2019-02-21T17:43:16.066Z,20.03
2019-02-21T17:45:43.882Z,20.12
2019-02-21T17:48:12.724Z,19.50
2019-02-21T17:50:40.663Z,18.63
2019-02-21T17:53:09.409Z,19.47
2019-02-21T17:55:37.827Z,19.77
2019-02-21T17:58:06.097Z,19.10
2019-02-21T18:00:41.073Z,18.43
2019-02-21T18:03:08.543Z,17.50
2019-02-21T18:05:35.989Z,17.27
2019-02-21T18:08:03.497Z,18.73
2019-02-21T18:10:30.978Z,17.77
2019-02-21T18:12:58.462Z,19.03
2019-02-21T18:15:25.944Z,17.43
2019-02-21T18:17:53.454Z,18.83
2019-02-21T18:20:20.941Z,18.07
2019-02-21T18:22:49.035Z,17.83
2019-02-21T18:25:16.620Z,18.80
2019-02-21T18:27:44.161Z,18.10
2019-02-21T18:30:11.871Z,18.80
2019-02-21T18:32:40.013Z,20.20
2019-02-21T18:35:07.878Z,20.73
2019-02-21T18:37:46.670Z,22.23
2019-02-21T18:40:04.176Z,23.30
2019-02-21T18:42:31.900Z,22.67
2019-02-21T18:44:59.404Z,20.43
2019-02-21T18:47:26.882Z,20.10
2019-02-21T18:49:54.355Z,19.67
2019-02-21T18:52:21.977Z,21.27
2019-02-21T18:54:49.860Z,19.90
2019-02-21T18:57:17.474Z,24.47
2019-02-21T18:59:45.135Z,20.85
2019-02-21T19:02:12.615Z,21.87
2019-02-21T19:04:40.050Z,23.10
2019-02-21T19:07:08.567Z,24.75
2019-02-21T19:09:36.038Z,26.77
2019-02-21T19:12:04.574Z,27.50
2019-02-21T19:14:32.095Z,29.40
2019-02-21T19:16:59.568Z,27.60
2019-02-21T19:19:27.024Z,28.10
2019-02-21T19:21:54.488Z,26.87
2019-02-21T19:24:22.006Z,27.57
2019-02-21T19:26:49.471Z,27.83
2019-02-21T19:29:16.956Z,28.45
2019-02-21T19:31:44.501Z,27.92
2019-02-21T19:34:11.962Z,27.80
2019-02-21T19:36:39.427Z,27.10
2019-02-21T19:39:06.900Z,29.27
2019-02-21T19:41:34.419Z,27.23
2019-02-21T19:44:08.743Z,28.37
2019-02-21T19:46:29.382Z,28.23
2019-02-21T19:48:56.940Z,31.60
2019-02-21T19:51:24.428Z,35.60
2019-02-21T19:53:51.900Z,39.37
2019-02-21T19:56:19.408Z,35.28
2019-02-21T19:58:46.879Z,33.67
2019-02-21T20:01:14.336Z,31.12
2019-02-21T20:03:41.887Z,34.27
2019-02-21T20:06:09.749Z,32.35
2019-02-21T20:08:37.242Z,34.07
2019-02-21T20:11:04.736Z,30.40
2019-02-21T20:13:32.246Z,30.63
2019-02-21T20:15:59.760Z,30.07
2019-02-21T20:18:27.252Z,30.65
2019-02-21T20:20:56.108Z,32.97
2019-02-21T20:23:23.638Z,30.67
2019-02-21T20:25:51.116Z,31.73
2019-02-21T20:28:18.628Z,31.43
2019-02-21T20:30:46.117Z,31.40
2019-02-21T20:33:13.604Z,32.90
2019-02-21T20:35:41.078Z,32.33
2019-02-21T20:38:08.519Z,32.03
2019-02-21T20:40:35.970Z,32.07
2019-02-21T20:43:03.596Z,31.93
2019-02-21T20:45:31.081Z,33.90
2019-02-21T20:47:58.566Z,31.27
2019-02-21T20:50:26.065Z,30.92
2019-02-21T20:52:53.529Z,29.85
2019-02-21T20:55:21.046Z,32.27
2019-02-21T20:57:48.724Z,33.17
2019-02-21T21:00:16.222Z,31.67
2019-02-21T21:02:43.684Z,33.00
2019-02-21T21:05:11.309Z,32.87
2019-02-21T21:07:38.760Z,32.87
2019-02-21T21:10:06.215Z,32.37
2019-02-21T21:12:33.717Z,33.87
2019-02-21T21:15:01.210Z,33.80
2019-02-21T21:17:28.663Z,36.08
2019-02-21T21:19:56.146Z,32.27
2019-02-21T21:22:23.590Z,34.25
2019-02-21T21:24:51.091Z,30.92
2019-02-21T21:27:18.828Z,34.72
2019-02-21T21:29:46.333Z,33.93
2019-02-21T21:32:13.841Z,32.53
2019-02-21T21:34:41.798Z,38.37
2019-02-21T21:37:09.282Z,34.30
2019-02-21T21:39:36.732Z,34.63
2019-02-21T21:42:04.254Z,34.40
2019-02-21T21:44:31.705Z,35.47
2019-02-21T21:46:59.191Z,35.70
2019-02-21T21:49:26.683Z,38.47
2019-02-21T21:51:54.154Z,39.63
2019-02-21T21:54:21.796Z,38.23
2019-02-21T21:56:49.374Z,36.80
2019-02-21T21:59:16.979Z,37.23
2019-02-21T22:01:44.483Z,36.70
2019-02-21T22:04:12.585Z,38.30
2019-02-21T22:06:40.107Z,40.73
2019-02-21T22:09:07.659Z,40.43
2019-02-21T22:11:35.257Z,38.73
2019-02-21T22:14:02.802Z,38.13
2019-02-21T22:16:30.309Z,40.15
2019-02-21T22:18:57.767Z,37.25
2019-02-21T22:21:25.272Z,38.58
2019-02-21T22:23:52.862Z,37.38
2019-02-21T22:26:21.478Z,40.67
2019-02-21T22:28:49.040Z,37.63
2019-02-21T22:31:16.507Z,38.97
2019-02-21T22:33:43.996Z,35.77
2019-02-21T22:36:12.295Z,36.50
2019-02-21T22:38:39.815Z,36.83
2019-02-21T22:41:07.336Z,38.97
2019-02-21T22:43:34.842Z,37.17
2019-02-21T22:46:02.336Z,35.43
2019-02-21T22:48:29.948Z,32.63
2019-02-21T22:50:57.465Z,34.60
2019-02-21T22:53:24.952Z,32.60
2019-02-21T22:55:52.452Z,39.22
2019-02-21T22:58:19.925Z,38.77
2019-02-21T23:00:53.721Z,39.92
2019-02-21T23:03:21.215Z,37.15
2019-02-21T23:06:11.211Z,37.17
2019-02-21T23:08:47.156Z,39.27
2019-02-21T23:11:14.644Z,37.77
2019-02-21T23:13:42.168Z,40.30
2019-02-21T23:16:09.594Z,43.50
2019-02-21T23:18:37.032Z,41.10
2019-02-21T23:21:04.472Z,39.87
2019-02-21T23:23:31.955Z,42.17
2019-02-21T23:25:59.397Z,37.80
2019-02-21T23:28:26.859Z,38.22
2019-02-21T23:30:54.307Z,42.63
2019-02-21T23:33:21.791Z,43.67
2019-02-21T23:35:49.262Z,43.33
2019-02-21T23:38:16.736Z,42.47
2019-02-21T23:40:44.440Z,41.67
2019-02-21T23:43:11.906Z,40.87
2019-02-21T23:45:40.027Z,38.67
2019-02-21T23:48:07.542Z,41.87
2019-02-21T23:50:35.004Z,41.70
2019-02-21T23:53:02.484Z,36.88
2019-02-21T23:55:29.940Z,38.43
2019-02-21T23:57:57.390Z,38.67
